sensor_id;sensor_type;location;lat;lon;timestamp;pressure;altitude;pressure_sealevel;temperature;humidity
67840;BME280;54636;51.684;5.142;2023-08-07T00:00:50;101421.44;;;12.72;100.00
67840;BME280;54636;51.684;5.142;2023-08-07T00:03:16;101430.84;;;12.71;100.00
67840;BME280;54636;51.684;5.142;2023-08-07T00:05:47;101419.22;;;12.71;100.00
67840;BME280;54636;51.684;5.142;2023-08-07T00:08:12;101405.41;;;12.54;100.00
67840;BME280;54636;51.684;5.142;2023-08-07T00:10:38;101417.84;;;12.61;100.00
67840;BME280;54636;51.684;5.142;2023-08-07T00:13:03;101394.38;;;12.43;100.00
67840;BME280;54636;51.684;5.142;2023-08-07T00:15:29;101424.66;;;12.71;100.00
67840;BME280;54636;51.684;5.142;2023-08-07T00:17:55;101401.94;;;12.53;100.00
67840;BME280;54636;51.684;5.142;2023-08-07T00:20:20;101420.84;;;12.63;100.00
67840;BME280;54636;51.684;5.142;2023-08-07T00:22:45;101421.59;;;12.63;100.00
67840;BME280;54636;51.684;5.142;2023-08-07T00:25:11;101419.63;;;12.64;100.00
67840;BME280;54636;51.684;5.142;2023-08-07T00:27:36;101409.00;;;12.66;100.00
67840;BME280;54636;51.684;5.142;2023-08-07T00:30:02;101404.88;;;12.50;100.00
67840;BME280;54636;51.684;5.142;2023-08-07T00:32:27;101422.69;;;12.71;100.00
67840;BME280;54636;51.684;5.142;2023-08-07T00:34:53;101423.09;;;12.64;100.00
67840;BME280;54636;51.684;5.142;2023-08-07T00:37:18;101423.09;;;12.64;100.00
67840;BME280;54636;51.684;5.142;2023-08-07T00:39:43;101415.94;;;12.67;100.00
67840;BME280;54636;51.684;5.142;2023-08-07T00:42:09;101428.56;;;12.64;100.00
67840;BME280;54636;51.684;5.142;2023-08-07T00:44:34;101421.59;;;12.63;100.00
67840;BME280;54636;51.684;5.142;2023-08-07T00:47:00;101425.81;;;12.64;100.00
67840;BME280;54636;51.684;5.142;2023-08-07T00:49:25;101430.31;;;12.67;100.00
67840;BME280;54636;51.684;5.142;2023-08-07T00:51:51;101419.63;;;12.64;100.00
67840;BME280;54636;51.684;5.142;2023-08-07T00:54:18;101424.88;;;12.67;100.00
67840;BME280;54636;51.684;5.142;2023-08-07T00:56:45;101392.47;;;12.49;100.00
67840;BME280;54636;51.684;5.142;2023-08-07T00:59:12;101407.44;;;12.59;100.00
67840;BME280;54636;51.684;5.142;2023-08-07T01:01:38;101423.84;;;12.65;100.00
67840;BME280;54636;51.684;5.142;2023-08-07T01:04:04;101410.56;;;12.72;100.00
67840;BME280;54636;51.684;5.142;2023-08-07T01:06:29;101423.66;;;12.94;100.00
67840;BME280;54636;51.684;5.142;2023-08-07T01:08:55;101432.25;;;12.87;100.00
67840;BME280;54636;51.684;5.142;2023-08-07T01:17:09;101424.63;;;12.91;100.00
67840;BME280;54636;51.684;5.142;2023-08-07T01:19:35;101425.84;;;12.90;100.00
67840;BME280;54636;51.684;5.142;2023-08-07T01:24:36;101389.38;;;12.62;100.00
67840;BME280;54636;51.684;5.142;2023-08-07T01:29:59;101401.84;;;12.68;100.00
67840;BME280;54636;51.684;5.142;2023-08-07T01:35:16;101450.13;;;12.88;100.00
67840;BME280;54636;51.684;5.142;2023-08-07T01:37:43;101447.28;;;12.77;100.00
67840;BME280;54636;51.684;5.142;2023-08-07T01:40:11;101449.41;;;12.67;100.00
67840;BME280;54636;51.684;5.142;2023-08-07T01:42:38;101451.31;;;12.61;100.00
67840;BME280;54636;51.684;5.142;2023-08-07T01:45:04;101437.50;;;12.44;100.00
67840;BME280;54636;51.684;5.142;2023-08-07T01:47:30;101436.47;;;12.42;100.00
67840;BME280;54636;51.684;5.142;2023-08-07T01:49:55;101447.78;;;12.55;100.00
67840;BME280;54636;51.684;5.142;2023-08-07T01:52:21;101454.44;;;12.54;100.00
67840;BME280;54636;51.684;5.142;2023-08-07T01:54:46;101452.19;;;12.52;100.00
67840;BME280;54636;51.684;5.142;2023-08-07T01:57:12;101451.94;;;12.50;100.00
67840;BME280;54636;51.684;5.142;2023-08-07T01:59:37;101452.28;;;12.38;100.00
67840;BME280;54636;51.684;5.142;2023-08-07T02:02:03;101453.78;;;12.39;100.00
67840;BME280;54636;51.684;5.142;2023-08-07T02:04:28;101459.19;;;12.33;100.00
67840;BME280;54636;51.684;5.142;2023-08-07T02:06:53;101463.13;;;12.32;100.00
67840;BME280;54636;51.684;5.142;2023-08-07T02:09:19;101456.09;;;12.26;100.00
67840;BME280;54636;51.684;5.142;2023-08-07T02:11:44;101450.25;;;12.33;100.00
67840;BME280;54636;51.684;5.142;2023-08-07T02:14:10;101429.34;;;12.24;100.00
67840;BME280;54636;51.684;5.142;2023-08-07T02:16:35;101446.81;;;12.38;100.00
67840;BME280;54636;51.684;5.142;2023-08-07T02:19:01;101448.03;;;12.37;100.00
67840;BME280;54636;51.684;5.142;2023-08-07T02:21:26;101427.38;;;12.25;100.00
67840;BME280;54636;51.684;5.142;2023-08-07T02:23:52;101443.31;;;12.32;100.00
67840;BME280;54636;51.684;5.142;2023-08-07T02:26:17;101456.09;;;12.46;100.00
67840;BME280;54636;51.684;5.142;2023-08-07T02:28:42;101454.38;;;12.48;100.00
67840;BME280;54636;51.684;5.142;2023-08-07T02:31:08;101459.09;;;12.48;100.00
67840;BME280;54636;51.684;5.142;2023-08-07T02:33:33;101461.81;;;12.48;100.00
67840;BME280;54636;51.684;5.142;2023-08-07T02:35:58;101472.78;;;12.53;100.00
67840;BME280;54636;51.684;5.142;2023-08-07T02:38:25;101463.56;;;12.51;100.00
67840;BME280;54636;51.684;5.142;2023-08-07T02:40:50;101479.31;;;12.62;100.00
67840;BME280;54636;51.684;5.142;2023-08-07T02:43:15;101457.44;;;12.56;100.00
67840;BME280;54636;51.684;5.142;2023-08-07T02:45:41;101432.53;;;12.43;100.00
67840;BME280;54636;51.684;5.142;2023-08-07T02:48:06;101453.56;;;12.63;100.00
67840;BME280;54636;51.684;5.142;2023-08-07T02:50:31;101459.56;;;12.67;100.00
67840;BME280;54636;51.684;5.142;2023-08-07T02:53:01;101456.75;;;12.61;100.00
67840;BME280;54636;51.684;5.142;2023-08-07T02:55:27;101454.63;;;12.71;100.00
67840;BME280;54636;51.684;5.142;2023-08-07T02:57:52;101441.69;;;12.66;100.00
67840;BME280;54636;51.684;5.142;2023-08-07T03:00:18;101451.03;;;12.79;100.00
67840;BME280;54636;51.684;5.142;2023-08-07T03:02:43;101442.31;;;12.75;100.00
67840;BME280;54636;51.684;5.142;2023-08-07T03:05:09;101443.06;;;12.76;100.00
67840;BME280;54636;51.684;5.142;2023-08-07T03:07:34;101439.31;;;12.73;100.00
67840;BME280;54636;51.684;5.142;2023-08-07T03:09:59;101450.75;;;12.77;100.00
67840;BME280;54636;51.684;5.142;2023-08-07T03:12:25;101447.13;;;12.86;100.00
67840;BME280;54636;51.684;5.142;2023-08-07T03:14:50;101445.63;;;12.85;100.00
67840;BME280;54636;51.684;5.142;2023-08-07T03:17:16;101441.25;;;12.93;100.00
67840;BME280;54636;51.684;5.142;2023-08-07T03:19:42;101442.00;;;12.94;100.00
67840;BME280;54636;51.684;5.142;2023-08-07T03:22:08;101444.03;;;12.99;100.00
67840;BME280;54636;51.684;5.142;2023-08-07T03:24:33;101451.94;;;12.97;100.00
67840;BME280;54636;51.684;5.142;2023-08-07T03:26:58;101439.28;;;12.94;100.00
67840;BME280;54636;51.684;5.142;2023-08-07T03:29:24;101446.75;;;12.99;100.00
67840;BME280;54636;51.684;5.142;2023-08-07T03:31:49;101447.25;;;13.03;100.00
67840;BME280;54636;51.684;5.142;2023-08-07T03:34:14;101450.75;;;13.03;100.00
67840;BME280;54636;51.684;5.142;2023-08-07T03:36:40;101429.38;;;12.96;100.00
67840;BME280;54636;51.684;5.142;2023-08-07T03:39:05;101459.78;;;13.15;100.00
67840;BME280;54636;51.684;5.142;2023-08-07T03:41:30;101461.75;;;13.14;100.00
67840;BME280;54636;51.684;5.142;2023-08-07T03:43:56;101472.25;;;13.22;100.00
67840;BME280;54636;51.684;5.142;2023-08-07T03:46:21;101468.03;;;13.21;100.00
67840;BME280;54636;51.684;5.142;2023-08-07T03:48:47;101440.31;;;13.02;100.00
67840;BME280;54636;51.684;5.142;2023-08-07T03:51:12;101466.47;;;13.14;100.00
67840;BME280;54636;51.684;5.142;2023-08-07T03:53:40;101462.72;;;13.11;100.00
67840;BME280;54636;51.684;5.142;2023-08-07T03:56:05;101451.50;;;13.04;100.00
67840;BME280;54636;51.684;5.142;2023-08-07T03:58:31;101461.63;;;12.98;100.00
67840;BME280;54636;51.684;5.142;2023-08-07T04:00:56;101473.84;;;13.08;100.00
67840;BME280;54636;51.684;5.142;2023-08-07T04:03:22;101440.31;;;13.02;100.00
67840;BME280;54636;51.684;5.142;2023-08-07T04:05:51;101455.97;;;13.07;100.00
67840;BME280;54636;51.684;5.142;2023-08-07T04:08:17;101460.38;;;12.99;100.00
67840;BME280;54636;51.684;5.142;2023-08-07T04:10:43;101457.13;;;12.95;100.00
67840;BME280;54636;51.684;5.142;2023-08-07T04:13:08;101462.53;;;12.89;100.00
67840;BME280;54636;51.684;5.142;2023-08-07T04:15:33;101457.81;;;12.90;100.00
67840;BME280;54636;51.684;5.142;2023-08-07T04:17:59;101466.00;;;12.90;100.00
67840;BME280;54636;51.684;5.142;2023-08-07T04:20:24;101446.78;;;12.78;100.00
67840;BME280;54636;51.684;5.142;2023-08-07T04:22:49;101471.94;;;12.88;100.00
67840;BME280;54636;51.684;5.142;2023-08-07T04:25:15;101473.44;;;12.89;100.00
67840;BME280;54636;51.684;5.142;2023-08-07T04:27:40;101466.47;;;12.88;100.00
67840;BME280;54636;51.684;5.142;2023-08-07T04:30:06;101465.25;;;12.89;100.00
67840;BME280;54636;51.684;5.142;2023-08-07T04:32:32;101464.50;;;12.89;100.00
67840;BME280;54636;51.684;5.142;2023-08-07T04:34:57;101458.72;;;12.81;100.00
67840;BME280;54636;51.684;5.142;2023-08-07T04:37:23;101468.31;;;12.97;100.00
67840;BME280;54636;51.684;5.142;2023-08-07T04:39:48;101466.09;;;13.01;100.00
67840;BME280;54636;51.684;5.142;2023-08-07T04:42:13;101465.19;;;13.09;100.00
67840;BME280;54636;51.684;5.142;2023-08-07T04:44:39;101473.03;;;13.02;100.00
67840;BME280;54636;51.684;5.142;2023-08-07T04:47:04;101460.91;;;13.03;100.00
67840;BME280;54636;51.684;5.142;2023-08-07T04:49:30;101453.69;;;13.00;100.00
67840;BME280;54636;51.684;5.142;2023-08-07T04:51:56;101478.13;;;13.14;100.00
67840;BME280;54636;51.684;5.142;2023-08-07T04:54:21;101475.69;;;13.16;100.00
67840;BME280;54636;51.684;5.142;2023-08-07T04:56:46;101485.06;;;13.15;100.00
67840;BME280;54636;51.684;5.142;2023-08-07T04:59:12;101470.56;;;13.04;100.00
67840;BME280;54636;51.684;5.142;2023-08-07T05:01:37;101464.97;;;13.13;100.00
67840;BME280;54636;51.684;5.142;2023-08-07T05:04:03;101486.13;;;13.18;100.00
67840;BME280;54636;51.684;5.142;2023-08-07T05:06:30;101478.59;;;13.13;100.00
67840;BME280;54636;51.684;5.142;2023-08-07T05:08:56;101478.78;;;13.30;100.00
67840;BME280;54636;51.684;5.142;2023-08-07T05:11:21;101478.69;;;13.18;100.00
67840;BME280;54636;51.684;5.142;2023-08-07T05:13:46;101480.44;;;13.22;100.00
67840;BME280;54636;51.684;5.142;2023-08-07T05:16:12;101483.44;;;13.24;100.00
67840;BME280;54636;51.684;5.142;2023-08-07T05:18:37;101499.38;;;13.31;100.00
67840;BME280;54636;51.684;5.142;2023-08-07T05:21:03;101496.66;;;13.31;100.00
67840;BME280;54636;51.684;5.142;2023-08-07T05:23:28;101483.13;;;13.16;100.00
67840;BME280;54636;51.684;5.142;2023-08-07T05:25:53;101491.63;;;13.24;100.00
67840;BME280;54636;51.684;5.142;2023-08-07T05:28:19;101514.53;;;13.32;100.00
67840;BME280;54636;51.684;5.142;2023-08-07T05:30:44;101514.72;;;13.28;100.00
67840;BME280;54636;51.684;5.142;2023-08-07T05:33:09;101515.97;;;13.27;100.00
67840;BME280;54636;51.684;5.142;2023-08-07T05:35:37;101482.50;;;13.06;100.00
67840;BME280;54636;51.684;5.142;2023-08-07T05:38:02;101516.50;;;13.31;100.00
67840;BME280;54636;51.684;5.142;2023-08-07T05:40:28;101523.78;;;13.40;100.00
67840;BME280;54636;51.684;5.142;2023-08-07T05:42:54;101520.13;;;13.48;100.00
67840;BME280;54636;51.684;5.142;2023-08-07T05:45:20;101515.69;;;13.51;100.00
67840;BME280;54636;51.684;5.142;2023-08-07T05:47:45;101538.38;;;13.63;100.00
67840;BME280;54636;51.684;5.142;2023-08-07T05:50:11;101529.16;;;13.60;100.00
67840;BME280;54636;51.684;5.142;2023-08-07T05:52:36;101520.13;;;13.48;100.00
67840;BME280;54636;51.684;5.142;2023-08-07T05:55:02;101545.31;;;13.64;100.00
67840;BME280;54636;51.684;5.142;2023-08-07T05:57:28;101536.38;;;13.63;100.00
67840;BME280;54636;51.684;5.142;2023-08-07T05:59:53;101522.97;;;13.60;100.00
67840;BME280;54636;51.684;5.142;2023-08-07T06:02:19;101546.41;;;13.77;100.00
67840;BME280;54636;51.684;5.142;2023-08-07T06:04:44;101524.25;;;13.70;100.00
67840;BME280;54636;51.684;5.142;2023-08-07T06:07:10;101527.72;;;13.70;100.00
67840;BME280;54636;51.684;5.142;2023-08-07T06:09:36;101565.56;;;13.83;100.00
67840;BME280;54636;51.684;5.142;2023-08-07T06:12:01;101569.28;;;13.80;100.00
67840;BME280;54636;51.684;5.142;2023-08-07T06:14:27;101583.28;;;13.62;100.00
67840;BME280;54636;51.684;5.142;2023-08-07T06:16:53;101571.44;;;13.44;100.00
67840;BME280;54636;51.684;5.142;2023-08-07T06:19:19;101579.78;;;13.35;100.00
67840;BME280;54636;51.684;5.142;2023-08-07T06:21:45;101574.00;;;13.28;100.00
67840;BME280;54636;51.684;5.142;2023-08-07T06:24:11;101555.06;;;13.18;100.00
67840;BME280;54636;51.684;5.142;2023-08-07T06:26:36;101569.91;;;13.38;100.00
67840;BME280;54636;51.684;5.142;2023-08-07T06:29:01;101558.97;;;13.38;100.00
67840;BME280;54636;51.684;5.142;2023-08-07T06:31:27;101577.00;;;13.56;100.00
67840;BME280;54636;51.684;5.142;2023-08-07T06:33:52;101584.81;;;13.68;100.00
67840;BME280;54636;51.684;5.142;2023-08-07T06:36:17;101586.66;;;13.82;100.00
67840;BME280;54636;51.684;5.142;2023-08-07T06:38:43;101570.84;;;13.92;100.00
67840;BME280;54636;51.684;5.142;2023-08-07T06:41:08;101573.44;;;14.07;100.00
67840;BME280;54636;51.684;5.142;2023-08-07T06:43:33;101588.03;;;14.30;100.00
67840;BME280;54636;51.684;5.142;2023-08-07T06:45:59;101576.66;;;14.42;100.00
67840;BME280;54636;51.684;5.142;2023-08-07T06:48:24;101570.88;;;14.35;100.00
67840;BME280;54636;51.684;5.142;2023-08-07T06:50:50;101584.38;;;14.44;100.00
67840;BME280;54636;51.684;5.142;2023-08-07T06:53:16;101582.13;;;14.42;100.00
67840;BME280;54636;51.684;5.142;2023-08-07T06:55:42;101566.16;;;14.30;100.00
67840;BME280;54636;51.684;5.142;2023-08-07T06:58:08;101569.81;;;14.21;100.00
67840;BME280;54636;51.684;5.142;2023-08-07T07:00:34;101589.47;;;14.31;100.00
67840;BME280;54636;51.684;5.142;2023-08-07T07:03:00;101581.75;;;14.24;100.00
67840;BME280;54636;51.684;5.142;2023-08-07T07:05:26;101582.97;;;14.17;100.00
67840;BME280;54636;51.684;5.142;2023-08-07T07:07:51;101599.91;;;14.27;100.00
67840;BME280;54636;51.684;5.142;2023-08-07T07:10:17;101609.81;;;14.18;100.00
67840;BME280;54636;51.684;5.142;2023-08-07T07:12:42;101603.97;;;14.05;100.00
67840;BME280;54636;51.684;5.142;2023-08-07T07:15:08;101614.22;;;14.10;100.00
67840;BME280;54636;51.684;5.142;2023-08-07T07:17:34;101614.59;;;13.98;100.00
67840;BME280;54636;51.684;5.142;2023-08-07T07:19:59;101605.06;;;13.88;100.00
67840;BME280;54636;51.684;5.142;2023-08-07T07:22:25;101610.09;;;13.95;100.00
67840;BME280;54636;51.684;5.142;2023-08-07T07:24:51;101600.16;;;13.92;100.00
67840;BME280;54636;51.684;5.142;2023-08-07T07:27:16;101619.72;;;14.16;100.00
67840;BME280;54636;51.684;5.142;2023-08-07T07:29:41;101627.50;;;14.29;100.00
67840;BME280;54636;51.684;5.142;2023-08-07T07:32:07;101625.88;;;14.42;100.00
67840;BME280;54636;51.684;5.142;2023-08-07T07:34:33;101636.22;;;14.33;100.00
67840;BME280;54636;51.684;5.142;2023-08-07T07:36:58;101635.97;;;14.36;100.00
67840;BME280;54636;51.684;5.142;2023-08-07T07:39:23;101625.16;;;14.47;100.00
67840;BME280;54636;51.684;5.142;2023-08-07T07:41:49;101634.03;;;14.74;100.00
67840;BME280;54636;51.684;5.142;2023-08-07T07:44:14;101634.56;;;14.83;100.00
67840;BME280;54636;51.684;5.142;2023-08-07T07:46:40;101634.78;;;14.80;100.00
67840;BME280;54636;51.684;5.142;2023-08-07T07:49:05;101629.63;;;14.88;100.00
67840;BME280;54636;51.684;5.142;2023-08-07T07:51:31;101622.41;;;14.96;100.00
67840;BME280;54636;51.684;5.142;2023-08-07T07:53:57;101614.03;;;15.16;100.00
67840;BME280;54636;51.684;5.142;2023-08-07T07:56:23;101623.09;;;15.44;100.00
67840;BME280;54636;51.684;5.142;2023-08-07T07:58:49;101622.13;;;15.64;100.00
67840;BME280;54636;51.684;5.142;2023-08-07T08:01:14;101625.63;;;15.81;100.00
67840;BME280;54636;51.684;5.142;2023-08-07T08:03:40;101634.63;;;16.04;100.00
67840;BME280;54636;51.684;5.142;2023-08-07T08:06:05;101637.06;;;16.30;100.00
67840;BME280;54636;51.684;5.142;2023-08-07T08:08:31;101645.28;;;16.53;100.00
67840;BME280;54636;51.684;5.142;2023-08-07T08:10:56;101650.75;;;16.69;93.24
67840;BME280;54636;51.684;5.142;2023-08-07T08:13:21;101656.19;;;16.86;89.82
67840;BME280;54636;51.684;5.142;2023-08-07T08:15:47;101644.34;;;17.13;88.23
67840;BME280;54636;51.684;5.142;2023-08-07T08:18:13;101646.78;;;17.28;87.86
67840;BME280;54636;51.684;5.142;2023-08-07T08:20:38;101654.31;;;17.17;84.93
67840;BME280;54636;51.684;5.142;2023-08-07T08:23:04;101655.47;;;16.74;83.84
67840;BME280;54636;51.684;5.142;2023-08-07T08:25:30;101661.72;;;16.47;85.07
67840;BME280;54636;51.684;5.142;2023-08-07T08:27:56;101674.19;;;16.70;92.89
67840;BME280;54636;51.684;5.142;2023-08-07T08:30:21;101669.56;;;17.06;86.97
67840;BME280;54636;51.684;5.142;2023-08-07T08:32:48;101661.06;;;17.16;82.57
67840;BME280;54636;51.684;5.142;2023-08-07T08:35:14;101635.66;;;16.98;84.38
67840;BME280;54636;51.684;5.142;2023-08-07T08:37:39;101668.78;;;17.17;82.82
67840;BME280;54636;51.684;5.142;2023-08-07T08:40:06;101683.00;;;17.21;82.61
67840;BME280;54636;51.684;5.142;2023-08-07T08:42:33;101685.75;;;17.21;83.51
67840;BME280;54636;51.684;5.142;2023-08-07T08:44:59;101682.03;;;17.07;79.64
67840;BME280;54636;51.684;5.142;2023-08-07T08:47:25;101678.31;;;16.99;78.47
67840;BME280;54636;51.684;5.142;2023-08-07T08:50:03;101685.78;;;17.04;83.18
67840;BME280;54636;51.684;5.142;2023-08-07T08:52:31;101687.50;;;17.13;82.96
67840;BME280;54636;51.684;5.142;2023-08-07T08:54:57;101673.00;;;17.24;76.87
67840;BME280;54636;51.684;5.142;2023-08-07T08:57:25;101662.72;;;17.35;78.49
67840;BME280;54636;51.684;5.142;2023-08-07T08:59:51;101678.00;;;17.72;74.76
67840;BME280;54636;51.684;5.142;2023-08-07T09:02:17;101677.03;;;18.05;71.57
67840;BME280;54636;51.684;5.142;2023-08-07T09:04:44;101690.63;;;18.22;68.30
67840;BME280;54636;51.684;5.142;2023-08-07T09:07:12;101674.28;;;18.05;67.88
67840;BME280;54636;51.684;5.142;2023-08-07T09:09:39;101689.13;;;17.91;70.15
67840;BME280;54636;51.684;5.142;2023-08-07T09:12:07;101690.50;;;17.67;70.53
67840;BME280;54636;51.684;5.142;2023-08-07T09:14:33;101676.53;;;17.60;66.85
67840;BME280;54636;51.684;5.142;2023-08-07T09:17:03;101707.06;;;17.97;68.68
67840;BME280;54636;51.684;5.142;2023-08-07T09:19:29;101697.84;;;18.25;69.53
67840;BME280;54636;51.684;5.142;2023-08-07T09:21:55;101708.75;;;18.36;68.27
67840;BME280;54636;51.684;5.142;2023-08-07T09:24:20;101701.34;;;18.25;64.33
67840;BME280;54636;51.684;5.142;2023-08-07T09:26:47;101707.63;;;18.20;64.47
67840;BME280;54636;51.684;5.142;2023-08-07T09:29:13;101691.19;;;18.15;66.70
67840;BME280;54636;51.684;5.142;2023-08-07T09:31:43;101710.31;;;18.56;66.82
67840;BME280;54636;51.684;5.142;2023-08-07T09:34:10;101703.78;;;18.64;63.29
67840;BME280;54636;51.684;5.142;2023-08-07T09:36:39;101700.09;;;18.81;62.71
67840;BME280;54636;51.684;5.142;2023-08-07T09:39:04;101692.66;;;18.75;64.20
67840;BME280;54636;51.684;5.142;2023-08-07T09:41:30;101724.84;;;18.56;64.42
67840;BME280;54636;51.684;5.142;2023-08-07T09:43:56;101711.22;;;18.39;59.99
67840;BME280;54636;51.684;5.142;2023-08-07T09:46:25;101713.47;;;18.41;60.30
67840;BME280;54636;51.684;5.142;2023-08-07T09:48:50;101725.63;;;18.51;62.38
67840;BME280;54636;51.684;5.142;2023-08-07T09:51:16;101725.13;;;18.83;56.46
67840;BME280;54636;51.684;5.142;2023-08-07T09:53:41;101724.91;;;18.99;54.02
67840;BME280;54636;51.684;5.142;2023-08-07T09:56:07;101700.09;;;18.81;57.03
67840;BME280;54636;51.684;5.142;2023-08-07T09:58:32;101742.63;;;19.04;56.16
67840;BME280;54636;51.684;5.142;2023-08-07T10:01:03;101735.19;;;18.99;55.29
67840;BME280;54636;51.684;5.142;2023-08-07T10:03:28;101724.78;;;19.11;54.59
67840;BME280;54636;51.684;5.142;2023-08-07T10:05:55;101738.94;;;19.20;53.35
67840;BME280;54636;51.684;5.142;2023-08-07T10:08:21;101725.53;;;19.11;54.05
67840;BME280;54636;51.684;5.142;2023-08-07T10:10:46;101743.44;;;19.23;55.82
67840;BME280;54636;51.684;5.142;2023-08-07T10:13:13;101737.66;;;19.46;56.11
67840;BME280;54636;51.684;5.142;2023-08-07T10:15:39;101749.56;;;19.54;50.84
67840;BME280;54636;51.684;5.142;2023-08-07T10:18:06;101754.03;;;19.76;51.59
67840;BME280;54636;51.684;5.142;2023-08-07T10:20:32;101744.59;;;19.90;51.65
67840;BME280;54636;51.684;5.142;2023-08-07T10:23:07;101742.56;;;19.90;52.56
67840;BME280;54636;51.684;5.142;2023-08-07T10:25:34;101737.78;;;20.10;52.90
67840;BME280;54636;51.684;5.142;2023-08-07T10:28:01;101745.41;;;20.17;50.72
67840;BME280;54636;51.684;5.142;2023-08-07T10:30:27;101747.34;;;19.90;51.75
67840;BME280;54636;51.684;5.142;2023-08-07T10:32:54;101754.13;;;19.70;54.07
67840;BME280;54636;51.684;5.142;2023-08-07T10:35:33;101734.38;;;19.66;54.70
67840;BME280;54636;51.684;5.142;2023-08-07T10:38:06;101760.59;;;19.91;54.11
67840;BME280;54636;51.684;5.142;2023-08-07T10:40:33;101758.53;;;19.79;53.47
67840;BME280;54636;51.684;5.142;2023-08-07T10:43:11;101767.16;;;19.88;52.21
67840;BME280;54636;51.684;5.142;2023-08-07T10:45:37;101766.41;;;20.06;54.02
67840;BME280;54636;51.684;5.142;2023-08-07T10:48:13;101756.19;;;20.33;52.84
67840;BME280;54636;51.684;5.142;2023-08-07T10:55:53;101761.34;;;19.92;50.55
67840;BME280;54636;51.684;5.142;2023-08-07T10:58:24;101770.88;;;19.72;50.26
67840;BME280;54636;51.684;5.142;2023-08-07T11:01:19;101764.69;;;19.66;53.60
67840;BME280;54636;51.684;5.142;2023-08-07T11:06:17;101777.44;;;19.69;50.24
67840;BME280;54636;51.684;5.142;2023-08-07T11:08:43;101763.81;;;19.58;48.56
67840;BME280;54636;51.684;5.142;2023-08-07T11:11:08;101758.22;;;19.63;49.96
67840;BME280;54636;51.684;5.142;2023-08-07T11:13:34;101756.94;;;19.64;51.46
67840;BME280;54636;51.684;5.142;2023-08-07T11:16:02;101769.03;;;19.80;49.19
67840;BME280;54636;51.684;5.142;2023-08-07T11:18:28;101738.19;;;19.63;50.00
67840;BME280;54636;51.684;5.142;2023-08-07T11:20:57;101760.97;;;19.82;49.76
67840;BME280;54636;51.684;5.142;2023-08-07T11:23:26;101768.66;;;19.89;51.47
67840;BME280;54636;51.684;5.142;2023-08-07T11:25:52;101770.66;;;19.89;50.67
67840;BME280;54636;51.684;5.142;2023-08-07T11:28:22;101764.69;;;19.85;50.35
67840;BME280;54636;51.684;5.142;2023-08-07T11:30:51;101767.53;;;19.79;49.80
67840;BME280;54636;51.684;5.142;2023-08-07T11:33:20;101750.41;;;19.67;50.26
67840;BME280;54636;51.684;5.142;2023-08-07T11:35:47;101772.44;;;19.86;48.83
67840;BME280;54636;51.684;5.142;2023-08-07T11:38:37;101751.06;;;19.92;49.58
67840;BME280;54636;51.684;5.142;2023-08-07T11:41:04;101756.56;;;19.92;49.53
67840;BME280;54636;51.684;5.142;2023-08-07T11:43:31;101769.47;;;20.03;48.45
67840;BME280;54636;51.684;5.142;2023-08-07T11:46:00;101757.19;;;19.85;46.47
67840;BME280;54636;51.684;5.142;2023-08-07T11:48:28;101751.75;;;19.80;46.52
67840;BME280;54636;51.684;5.142;2023-08-07T11:50:54;101766.25;;;19.99;48.63
67840;BME280;54636;51.684;5.142;2023-08-07T11:53:24;101754.47;;;19.98;47.08
67840;BME280;54636;51.684;5.142;2023-08-07T11:55:56;101761.78;;;20.15;49.39
67840;BME280;54636;51.684;5.142;2023-08-07T11:58:24;101750.75;;;20.28;49.09
67840;BME280;54636;51.684;5.142;2023-08-07T12:00:49;101759.31;;;20.43;49.41
67840;BME280;54636;51.684;5.142;2023-08-07T12:03:25;101762.00;;;20.30;50.36
67840;BME280;54636;51.684;5.142;2023-08-07T12:05:52;101759.00;;;20.15;49.35
67840;BME280;54636;51.684;5.142;2023-08-07T12:08:19;101755.69;;;20.16;47.61
67840;BME280;54636;51.684;5.142;2023-08-07T12:10:44;101754.31;;;20.10;48.41
67840;BME280;54636;51.684;5.142;2023-08-07T12:13:12;101756.34;;;20.22;50.58
67840;BME280;54636;51.684;5.142;2023-08-07T12:15:37;101768.28;;;20.30;47.57
67840;BME280;54636;51.684;5.142;2023-08-07T12:18:03;101763.16;;;20.21;48.75
67840;BME280;54636;51.684;5.142;2023-08-07T12:20:28;101760.81;;;20.12;48.92
67840;BME280;54636;51.684;5.142;2023-08-07T12:22:54;101743.81;;;20.08;48.49
67840;BME280;54636;51.684;5.142;2023-08-07T12:25:20;101738.97;;;20.27;47.73
67840;BME280;54636;51.684;5.142;2023-08-07T12:27:45;101756.13;;;20.20;47.52
67840;BME280;54636;51.684;5.142;2023-08-07T12:30:13;101745.91;;;20.02;49.60
67840;BME280;54636;51.684;5.142;2023-08-07T12:32:38;101753.28;;;20.13;51.04
67840;BME280;54636;51.684;5.142;2023-08-07T12:35:04;101764.41;;;20.20;52.66
67840;BME280;54636;51.684;5.142;2023-08-07T12:37:33;101775.03;;;20.48;51.91
67840;BME280;54636;51.684;5.142;2023-08-07T12:39:58;101757.41;;;20.19;54.76
67840;BME280;54636;51.684;5.142;2023-08-07T12:42:24;101776.84;;;19.95;60.27
67840;BME280;54636;51.684;5.142;2023-08-07T12:44:49;101773.78;;;19.61;67.31
67840;BME280;54636;51.684;5.142;2023-08-07T12:47:15;101782.28;;;19.20;74.59
67840;BME280;54636;51.684;5.142;2023-08-07T12:49:40;101773.03;;;19.17;72.80
67840;BME280;54636;51.684;5.142;2023-08-07T12:52:06;101762.19;;;19.00;74.45
67840;BME280;54636;51.684;5.142;2023-08-07T12:54:32;101771.88;;;19.07;76.23
67840;BME280;54636;51.684;5.142;2023-08-07T12:56:57;101732.44;;;18.99;73.83
67840;BME280;54636;51.684;5.142;2023-08-07T12:59:22;101770.56;;;19.38;72.94